Dunfermline, United Kingdom
Current Conditions -  °F | °C
As of 11:50 AM on Friday 19 Dec 2014 (Local Time) from EGPH Reporting Station
Light Rain Light Rain  
Wind Chill: 29°   Ceiling: Unl
Heat Index: 37°   Visibility: 6mi
Dew Point: 36°   Wind: 15mph
Humidity: 93%   Direction: 260°W
Pressure: 29.65"   Gusts: NA
Location:  56.07°N, 3.46°W
Report Text: EGPH 191150Z AUTO 26013KT 9999 -RA SCT009/// SCT026/// //////TCU 03/02 Q1004 RESHRA
Loading
Personal Weather Stations






























Interactive Weather Map New forecast layout! Learn more

10-Day Weather Forecast

Advertisements
Track Severe Weather on mobile